createdAt,value
2023-01-28T00:01:07.498Z,25.30
2023-01-28T00:03:36.037Z,24.77
2023-01-28T00:06:05.372Z,23.73
2023-01-28T00:08:34.388Z,24.13
2023-01-28T00:11:03.621Z,24.20
2023-01-28T00:13:34.099Z,25.83
2023-01-28T00:16:04.968Z,25.00
2023-01-28T00:18:34.493Z,24.47
2023-01-28T00:21:04.448Z,25.57
2023-01-28T00:23:38.681Z,23.73
2023-01-28T00:26:08.986Z,24.67
2023-01-28T00:28:38.552Z,25.27
2023-01-28T00:31:10.905Z,24.77
2023-01-28T00:33:39.265Z,24.97
2023-01-28T00:36:08.218Z,25.23
2023-01-28T00:38:36.563Z,24.93
2023-01-28T00:41:11.607Z,25.37
2023-01-28T00:43:42.323Z,25.83
2023-01-28T00:46:11.843Z,25.07
2023-01-28T00:48:41.248Z,24.90
2023-01-28T00:51:11.025Z,25.73
2023-01-28T00:53:39.845Z,24.77
2023-01-28T00:56:09.988Z,23.87
2023-01-28T00:58:38.206Z,24.17
2023-01-28T01:01:14.113Z,23.00
2023-01-28T01:03:43.868Z,23.33
2023-01-28T01:06:15.904Z,24.30
2023-01-28T01:08:50.655Z,23.23
2023-01-28T01:11:20.024Z,22.13
2023-01-28T01:13:52.737Z,21.60
2023-01-28T01:16:23.458Z,21.93
2023-01-28T01:18:53.244Z,22.60
2023-01-28T01:21:24.419Z,22.67
2023-01-28T01:23:53.809Z,23.33
2023-01-28T01:26:23.775Z,22.47
2023-01-28T01:28:52.453Z,23.50
2023-01-28T01:31:23.805Z,22.63
2023-01-28T01:33:53.578Z,22.60
2023-01-28T01:36:22.281Z,21.63
2023-01-28T01:38:54.808Z,22.70
2023-01-28T01:41:30.511Z,23.43
2023-01-28T01:44:01.187Z,21.80
2023-01-28T01:46:37.270Z,20.60
2023-01-28T02:09:41.896Z,20.17
2023-01-28T02:12:13.778Z,22.10
2023-01-28T02:14:45.377Z,21.53
2023-01-28T02:17:14.526Z,22.77
2023-01-28T02:19:48.675Z,21.97
2023-01-28T02:22:37.631Z,22.60
2023-01-28T02:25:49.433Z,21.40
2023-01-28T02:28:29.055Z,21.60
2023-01-28T02:31:04.533Z,21.40
2023-01-28T02:33:40.522Z,20.97
2023-01-28T02:36:18.885Z,22.43
2023-01-28T02:38:50.719Z,22.40
2023-01-28T02:41:25.055Z,21.70
2023-01-28T02:43:54.743Z,21.07
2023-01-28T02:46:52.013Z,21.33
2023-01-28T02:49:23.779Z,21.80
2023-01-28T02:52:16.116Z,21.67
2023-01-28T02:54:54.608Z,22.47
2023-01-28T02:57:36.981Z,22.03
2023-01-28T03:00:14.910Z,22.73
2023-01-28T03:02:50.999Z,21.43
2023-01-28T03:05:24.606Z,22.47
2023-01-28T03:07:54.090Z,22.57
2023-01-28T03:10:25.478Z,22.07
2023-01-28T03:13:15.159Z,24.10
2023-01-28T03:16:06.468Z,24.03
2023-01-28T03:18:59.158Z,23.67
2023-01-28T03:21:50.343Z,22.90
2023-01-28T03:24:40.624Z,23.67
2023-01-28T03:27:34.169Z,23.40
2023-01-28T03:30:31.775Z,23.43
2023-01-28T03:33:23.342Z,22.07
2023-01-28T03:36:09.079Z,22.17
2023-01-28T03:38:43.062Z,22.37
2023-01-28T03:41:21.449Z,22.47
2023-01-28T03:43:50.340Z,20.63
2023-01-28T03:46:18.999Z,20.70
2023-01-28T03:48:48.946Z,21.97
2023-01-28T03:51:19.083Z,21.63
2023-01-28T03:53:47.367Z,20.57
2023-01-28T03:56:19.662Z,20.87
2023-01-28T03:58:53.807Z,19.13
2023-01-28T04:01:22.791Z,19.27
2023-01-28T04:03:52.751Z,18.67
2023-01-28T04:06:29.080Z,19.17
2023-01-28T04:09:06.136Z,17.70
2023-01-28T04:11:42.196Z,18.27
2023-01-28T04:14:11.500Z,19.07
2023-01-28T04:16:52.143Z,17.13
2023-01-28T04:19:22.420Z,18.63
2023-01-28T04:21:53.957Z,18.70
2023-01-28T04:24:23.215Z,17.33
2023-01-28T04:26:51.632Z,18.27
2023-01-28T04:29:20.690Z,18.40
2023-01-28T04:31:50.702Z,18.03
2023-01-28T04:34:26.256Z,17.40
2023-01-28T04:37:17.603Z,16.40
2023-01-28T04:40:10.119Z,17.23
2023-01-28T04:42:43.790Z,16.07
2023-01-28T04:45:31.137Z,16.10
2023-01-28T04:48:22.355Z,16.80
2023-01-28T04:51:12.540Z,16.00
2023-01-28T04:53:59.571Z,16.50
2023-01-28T04:56:31.240Z,15.77
2023-01-28T04:58:59.510Z,16.23
2023-01-28T05:01:27.887Z,16.87
2023-01-28T05:03:56.921Z,16.23
2023-01-28T05:06:29.635Z,16.57
2023-01-28T05:09:01.335Z,15.87
2023-01-28T05:11:31.124Z,16.87
2023-01-28T05:14:03.656Z,16.17
2023-01-28T05:16:40.278Z,16.43
2023-01-28T05:19:09.245Z,16.63
2023-01-28T05:21:42.968Z,16.07
2023-01-28T05:24:31.598Z,16.43
2023-01-28T05:26:59.831Z,15.87
2023-01-28T05:29:28.326Z,15.17
2023-01-28T05:31:56.931Z,15.43
2023-01-28T05:34:25.252Z,15.93
2023-01-28T05:36:55.508Z,14.83
2023-01-28T05:39:42.075Z,15.77
2023-01-28T05:42:10.465Z,14.97
2023-01-28T05:44:45.620Z,14.83
2023-01-28T05:47:20.019Z,15.43
2023-01-28T05:50:03.928Z,15.30
2023-01-28T05:52:46.741Z,15.53
2023-01-28T05:55:25.513Z,15.33
2023-01-28T05:57:54.171Z,15.70
2023-01-28T06:00:25.190Z,14.80
2023-01-28T06:02:53.772Z,15.33
2023-01-28T06:05:22.695Z,15.73
2023-01-28T06:07:52.487Z,15.83
2023-01-28T06:10:21.895Z,15.63
2023-01-28T06:12:50.265Z,15.43
2023-01-28T06:15:53.546Z,15.60
2023-01-28T06:18:45.914Z,13.93
2023-01-28T06:21:14.895Z,15.77
2023-01-28T06:23:44.461Z,15.20
2023-01-28T06:26:12.701Z,16.00
2023-01-28T06:28:45.062Z,14.67
2023-01-28T06:31:13.322Z,14.37
2023-01-28T06:33:41.505Z,15.20
2023-01-28T06:36:10.549Z,14.57
2023-01-28T06:38:38.705Z,15.43
2023-01-28T06:41:08.459Z,14.70
2023-01-28T06:43:36.723Z,15.17
2023-01-28T06:46:05.157Z,15.90
2023-01-28T06:48:33.394Z,15.60
2023-01-28T06:51:01.719Z,16.27
2023-01-28T06:53:29.894Z,15.40
2023-01-28T06:55:58.291Z,15.27
2023-01-28T06:58:28.384Z,15.60
2023-01-28T07:00:56.815Z,15.37
2023-01-28T07:03:24.985Z,16.23
2023-01-28T07:05:53.250Z,17.13
2023-01-28T07:08:21.438Z,15.63
2023-01-28T07:10:49.765Z,15.77
2023-01-28T07:13:17.981Z,14.67
2023-01-28T07:15:48.929Z,16.53
2023-01-28T07:18:17.207Z,16.77
2023-01-28T07:20:45.956Z,15.63
2023-01-28T07:23:14.083Z,16.73
2023-01-28T07:25:42.355Z,15.23
2023-01-28T07:28:11.348Z,16.50
2023-01-28T07:30:39.752Z,15.90
2023-01-28T07:33:09.354Z,15.67
2023-01-28T07:35:37.683Z,15.33
2023-01-28T07:38:05.853Z,15.03
2023-01-28T07:40:34.120Z,15.80
2023-01-28T07:43:02.407Z,15.53
2023-01-28T07:45:38.310Z,16.27
2023-01-28T07:48:11.278Z,16.30
2023-01-28T07:50:40.467Z,13.97
2023-01-28T07:53:10.954Z,14.83
2023-01-28T07:55:39.640Z,15.33
2023-01-28T07:58:09.387Z,15.03
2023-01-28T08:00:39.071Z,15.83
2023-01-28T08:03:14.872Z,15.97
2023-01-28T08:05:46.069Z,15.63
2023-01-28T08:08:14.804Z,16.20
2023-01-28T08:10:44.064Z,15.83
2023-01-28T08:13:13.768Z,16.17
2023-01-28T08:15:42.551Z,16.27
2023-01-28T08:18:13.701Z,16.10
2023-01-28T08:20:44.938Z,15.53
2023-01-28T08:23:14.839Z,15.67
2023-01-28T08:25:43.271Z,15.77
2023-01-28T08:28:12.251Z,16.13
2023-01-28T08:30:41.181Z,17.13
2023-01-28T08:33:12.195Z,16.43
2023-01-28T08:35:40.916Z,16.97
2023-01-28T08:38:09.910Z,15.77
2023-01-28T08:40:38.612Z,15.53
2023-01-28T08:43:07.178Z,15.43
2023-01-28T08:45:35.463Z,16.80
2023-01-28T08:48:05.939Z,14.97
2023-01-28T08:50:37.049Z,14.37
2023-01-28T08:53:07.096Z,15.33
2023-01-28T08:55:35.897Z,15.30
2023-01-28T08:58:05.051Z,15.67
2023-01-28T09:00:33.680Z,15.60
2023-01-28T09:03:03.892Z,15.87
2023-01-28T09:05:35.950Z,15.90
2023-01-28T09:08:04.704Z,15.43
2023-01-28T09:10:33.206Z,15.70
2023-01-28T09:13:05.911Z,15.40
2023-01-28T09:15:34.580Z,15.47
2023-01-28T09:18:02.831Z,15.30
2023-01-28T09:20:32.373Z,14.53
2023-01-28T09:23:03.343Z,15.17
2023-01-28T09:25:32.096Z,14.03
2023-01-28T09:28:00.680Z,14.80
2023-01-28T09:30:29.715Z,13.90
2023-01-28T09:32:59.530Z,14.87
2023-01-28T09:35:28.343Z,15.50
2023-01-28T09:38:00.248Z,14.20
2023-01-28T09:40:35.711Z,14.07
2023-01-28T09:43:27.679Z,13.63
2023-01-28T09:46:00.008Z,13.83
2023-01-28T09:48:34.091Z,13.67
2023-01-28T09:51:02.641Z,14.70
2023-01-28T09:53:33.552Z,13.77
2023-01-28T09:56:07.299Z,13.60
2023-01-28T09:58:35.628Z,13.93
2023-01-28T10:01:18.185Z,13.97
2023-01-28T10:03:55.971Z,14.03
2023-01-28T10:06:31.691Z,14.40
2023-01-28T10:09:15.848Z,14.00
2023-01-28T10:11:57.820Z,14.10
2023-01-28T10:14:33.896Z,14.93
2023-01-28T10:17:09.124Z,15.03
2023-01-28T10:19:42.290Z,14.93
2023-01-28T10:22:17.253Z,16.40
2023-01-28T10:24:51.523Z,15.00
2023-01-28T10:27:25.061Z,15.83
2023-01-28T10:29:55.523Z,15.67
2023-01-28T10:32:30.794Z,15.63
2023-01-28T10:35:01.778Z,14.60
2023-01-28T10:37:32.825Z,14.97
2023-01-28T10:40:03.115Z,14.33
2023-01-28T10:42:35.146Z,14.87
2023-01-28T10:45:09.367Z,14.97
2023-01-28T10:47:42.180Z,14.70
2023-01-28T10:50:16.965Z,15.37
2023-01-28T10:52:55.155Z,16.00
2023-01-28T10:55:24.886Z,14.57
2023-01-28T10:57:54.884Z,14.47
2023-01-28T11:00:26.776Z,14.33
2023-01-28T11:02:56.078Z,14.73
2023-01-28T11:05:27.331Z,15.07
2023-01-28T11:08:06.866Z,14.17
2023-01-28T11:10:37.119Z,15.17
2023-01-28T11:13:15.562Z,14.33
2023-01-28T11:15:49.187Z,14.83
2023-01-28T11:18:20.099Z,14.13
2023-01-28T11:20:54.644Z,14.83
2023-01-28T11:23:25.924Z,12.07
2023-01-28T11:26:17.511Z,13.27
2023-01-28T11:28:47.806Z,12.43
2023-01-28T11:31:19.005Z,13.03
2023-01-28T11:33:51.098Z,12.53
2023-01-28T11:36:21.462Z,13.17
2023-01-28T11:38:52.139Z,12.70
2023-01-28T11:41:27.754Z,13.10
2023-01-28T11:43:57.771Z,12.97
2023-01-28T11:46:54.312Z,13.80
2023-01-28T11:49:33.597Z,12.87
2023-01-28T11:52:11.921Z,11.33
2023-01-28T11:54:55.431Z,12.43
2023-01-28T11:57:27.356Z,13.10
2023-01-28T12:00:19.313Z,12.93
2023-01-28T12:02:54.614Z,12.70
2023-01-28T12:05:45.570Z,13.27
2023-01-28T12:08:23.301Z,12.63
2023-01-28T12:11:07.906Z,12.90
2023-01-28T12:13:49.965Z,13.53
2023-01-28T12:16:37.559Z,13.17
2023-01-28T12:19:36.481Z,12.83
2023-01-28T12:22:20.078Z,13.43
2023-01-28T12:25:04.930Z,11.83
2023-01-28T12:27:47.694Z,13.13
2023-01-28T12:30:26.140Z,12.50
2023-01-28T12:33:10.663Z,12.00
2023-01-28T12:35:56.106Z,12.53
2023-01-28T12:38:35.954Z,12.33
2023-01-28T12:41:08.585Z,12.43
2023-01-28T12:43:57.528Z,12.80
2023-01-28T12:46:38.867Z,13.10
2023-01-28T12:49:14.504Z,13.03
2023-01-28T12:51:54.732Z,13.50
2023-01-28T12:54:27.746Z,13.50
2023-01-28T12:56:57.704Z,13.20
2023-01-28T12:59:31.186Z,12.67
2023-01-28T13:02:14.195Z,12.03
2023-01-28T13:04:49.135Z,13.17
2023-01-28T13:07:24.054Z,12.43
2023-01-28T13:09:58.967Z,13.70
2023-01-28T13:12:27.932Z,11.20
2023-01-28T13:14:56.239Z,10.90
2023-01-28T13:17:30.059Z,12.13
2023-01-28T13:20:00.820Z,12.03
2023-01-28T13:22:32.080Z,10.47
2023-01-28T13:25:19.550Z,11.73
2023-01-28T13:27:57.009Z,11.37
2023-01-28T13:30:28.320Z,11.57
2023-01-28T13:33:00.358Z,11.77
2023-01-28T13:35:38.137Z,10.97
2023-01-28T13:38:11.480Z,10.93
2023-01-28T13:40:41.624Z,10.30
2023-01-28T13:43:29.411Z,9.07
2023-01-28T13:46:00.547Z,9.90
2023-01-28T13:48:34.307Z,9.13
2023-01-28T13:51:05.422Z,9.33
2023-01-28T13:53:42.163Z,10.17
2023-01-28T13:56:22.017Z,10.03
2023-01-28T13:59:07.320Z,9.93
2023-01-28T14:02:12.938Z,8.40
2023-01-28T14:05:01.453Z,8.83
2023-01-28T14:07:47.592Z,8.90
2023-01-28T14:10:39.618Z,10.10
2023-01-28T14:13:36.994Z,10.13
2023-01-28T14:16:30.929Z,9.27
2023-01-28T14:19:03.141Z,9.67
2023-01-28T14:21:36.917Z,10.37
2023-01-28T14:24:07.502Z,10.93
2023-01-28T14:26:44.113Z,10.60
2023-01-28T14:29:44.457Z,10.73
2023-01-28T14:32:16.658Z,9.63
2023-01-28T14:34:47.000Z,10.80
2023-01-28T14:37:19.076Z,11.77
2023-01-28T14:39:52.788Z,11.27
2023-01-28T14:42:24.530Z,11.07
2023-01-28T14:45:02.915Z,11.57
2023-01-28T14:47:48.423Z,11.83
2023-01-28T14:50:32.461Z,11.20
2023-01-28T14:53:21.319Z,11.77
2023-01-28T14:55:58.981Z,11.27
2023-01-28T14:58:31.481Z,10.90
2023-01-28T15:01:01.628Z,9.73
2023-01-28T15:03:37.027Z,8.80
2023-01-28T15:06:07.795Z,9.50
2023-01-28T15:08:36.069Z,9.67
2023-01-28T15:11:09.835Z,9.00
2023-01-28T15:13:41.649Z,8.23
2023-01-28T15:16:20.607Z,7.50
2023-01-28T15:18:50.920Z,7.47
2023-01-28T15:21:21.845Z,7.37
2023-01-28T15:23:53.683Z,6.97
2023-01-28T15:26:26.545Z,6.10
2023-01-28T15:28:55.953Z,5.73
2023-01-28T15:31:25.723Z,5.97
2023-01-28T15:33:59.109Z,6.40
2023-01-28T15:36:28.099Z,6.30
2023-01-28T15:38:57.612Z,6.10
2023-01-28T15:41:33.539Z,5.20
2023-01-28T15:44:02.212Z,5.60
2023-01-28T15:46:30.525Z,5.57
2023-01-28T15:49:01.012Z,4.90
2023-01-28T15:51:32.257Z,6.10
2023-01-28T15:54:04.437Z,6.03
2023-01-28T15:56:34.194Z,6.70
2023-01-28T15:59:21.044Z,7.07
2023-01-28T16:01:49.611Z,7.90
2023-01-28T16:04:25.272Z,9.50
2023-01-28T16:06:54.524Z,10.00
2023-01-28T16:09:25.725Z,10.27
2023-01-28T16:12:02.193Z,10.10
2023-01-28T16:14:35.448Z,9.40
2023-01-28T16:17:03.960Z,10.03
2023-01-28T16:19:41.144Z,10.37
2023-01-28T16:22:19.880Z,8.33
2023-01-28T16:24:53.942Z,7.63
2023-01-28T16:27:26.821Z,6.93
2023-01-28T16:29:55.180Z,5.03
2023-01-28T16:32:30.300Z,5.77
2023-01-28T16:34:58.920Z,5.37
2023-01-28T16:37:28.137Z,5.03
2023-01-28T16:39:58.156Z,5.23
2023-01-28T19:21:41.179Z,5.67
2023-01-28T19:24:14.040Z,6.03
2023-01-28T19:26:44.791Z,5.83
2023-01-28T19:29:15.839Z,5.83
2023-01-28T19:31:48.772Z,5.70
2023-01-28T19:34:17.283Z,6.37
2023-01-28T19:36:47.522Z,6.73
2023-01-28T19:39:16.906Z,7.30
2023-01-28T19:41:45.671Z,5.80
2023-01-28T19:44:13.952Z,5.93
2023-01-28T19:46:42.383Z,5.57
2023-01-28T19:49:12.704Z,5.60
2023-01-28T19:51:40.910Z,5.70
2023-01-28T19:54:10.919Z,5.57
2023-01-28T19:56:39.088Z,5.70
2023-01-28T19:59:07.795Z,5.53
2023-01-28T20:01:36.874Z,6.00
2023-01-28T20:04:05.908Z,5.07
2023-01-28T20:06:35.954Z,6.13
2023-01-28T20:09:06.313Z,5.50
2023-01-28T20:11:36.193Z,6.00
2023-01-28T20:14:04.452Z,5.83
2023-01-28T20:16:34.359Z,5.00
2023-01-28T20:19:04.784Z,4.73
2023-01-28T20:21:34.597Z,5.17
2023-01-28T20:24:04.971Z,5.00
2023-01-28T20:26:37.409Z,4.10
2023-01-28T20:29:07.909Z,5.10
2023-01-28T20:31:36.827Z,4.80
2023-01-28T20:34:05.580Z,4.67
2023-01-28T20:36:34.343Z,4.33
2023-01-28T20:39:02.789Z,4.80
2023-01-28T20:41:31.128Z,4.77
2023-01-28T20:44:01.299Z,5.40
2023-01-28T20:46:34.082Z,5.30
2023-01-28T20:49:06.210Z,5.40
2023-01-28T20:51:36.187Z,5.30
2023-01-28T20:54:04.908Z,5.90
2023-01-28T20:56:33.647Z,6.00
2023-01-28T20:59:05.058Z,5.93
2023-01-28T21:01:35.407Z,5.77
2023-01-28T21:04:04.658Z,5.60
2023-01-28T21:06:34.008Z,5.53
2023-01-28T21:09:02.451Z,6.27
2023-01-28T21:11:31.456Z,5.60
2023-01-28T21:13:59.940Z,6.07
2023-01-28T21:16:29.955Z,6.63
2023-01-28T21:18:58.467Z,5.70
2023-01-28T21:21:28.469Z,5.93
2023-01-28T21:24:00.133Z,6.00
2023-01-28T21:26:29.110Z,5.87
2023-01-28T21:28:57.393Z,6.20
2023-01-28T21:31:28.069Z,6.20
2023-01-28T21:33:59.277Z,6.37
2023-01-28T21:36:28.716Z,6.50
2023-01-28T21:38:58.403Z,5.83
2023-01-28T21:41:26.872Z,6.13
2023-01-28T21:43:57.604Z,6.53
2023-01-28T21:46:28.689Z,6.23
2023-01-28T21:48:59.839Z,6.63
2023-01-28T21:51:39.441Z,6.70
2023-01-28T21:54:11.526Z,7.10
2023-01-28T21:56:39.876Z,6.80
2023-01-28T21:59:25.396Z,6.83
2023-01-28T22:01:53.683Z,7.00
2023-01-28T22:04:24.235Z,6.13
2023-01-28T22:06:55.029Z,7.43
2023-01-28T22:09:23.341Z,6.77
2023-01-28T22:11:51.835Z,7.03
2023-01-28T22:14:20.620Z,6.73
2023-01-28T22:16:49.188Z,7.13
2023-01-28T22:19:17.760Z,6.90
2023-01-28T22:21:47.897Z,6.33
2023-01-28T22:24:18.155Z,6.97
2023-01-28T22:26:47.995Z,6.20
2023-01-28T22:29:17.542Z,6.40
2023-01-28T22:31:46.871Z,6.63
2023-01-28T22:34:15.448Z,7.30
2023-01-28T22:36:43.963Z,6.67
2023-01-28T22:39:15.893Z,6.23
2023-01-28T22:41:45.838Z,6.70
2023-01-28T22:44:14.175Z,7.47
2023-01-28T22:46:42.659Z,7.00
2023-01-28T22:49:12.561Z,6.87
2023-01-28T22:51:40.851Z,7.47
2023-01-28T22:54:10.010Z,6.80
2023-01-28T22:56:40.519Z,7.23
2023-01-28T22:59:08.710Z,6.90
2023-01-28T23:01:36.973Z,7.87
2023-01-28T23:04:05.291Z,7.23
2023-01-28T23:06:34.093Z,8.20
2023-01-28T23:09:02.347Z,7.40
2023-01-28T23:11:30.638Z,6.83
2023-01-28T23:14:19.256Z,7.37
2023-01-28T23:17:05.749Z,7.97
2023-01-28T23:19:51.214Z,7.90
2023-01-28T23:22:41.304Z,7.53
2023-01-28T23:25:10.247Z,8.80
2023-01-28T23:27:38.659Z,7.43
2023-01-28T23:30:11.318Z,7.90
2023-01-28T23:32:41.038Z,8.40
2023-01-28T23:35:09.881Z,8.43
2023-01-28T23:37:38.300Z,7.23
2023-01-28T23:40:07.635Z,8.17
2023-01-28T23:42:35.880Z,7.77
2023-01-28T23:45:04.202Z,8.30
2023-01-28T23:47:34.155Z,9.10
2023-01-28T23:50:02.404Z,7.73
2023-01-28T23:52:30.734Z,7.63
2023-01-28T23:54:58.922Z,6.50
2023-01-28T23:57:27.206Z,6.93
2023-01-28T23:59:55.434Z,4.47
